createdAt,value
2023-04-08T00:00:39.109Z,19.30
2023-04-08T00:03:21.681Z,23.92
2023-04-08T00:05:49.382Z,26.98
2023-04-08T00:08:17.818Z,21.10
2023-04-08T00:10:45.630Z,22.38
2023-04-08T00:13:20.760Z,20.52
2023-04-08T00:15:49.512Z,21.25
2023-04-08T00:18:17.326Z,20.40
2023-04-08T00:20:47.099Z,21.02
2023-04-08T00:23:14.809Z,24.98
2023-04-08T00:25:42.849Z,24.13
2023-04-08T00:28:10.761Z,23.00
2023-04-08T00:30:38.381Z,24.73
2023-04-08T00:33:05.932Z,25.48
2023-04-08T00:35:35.312Z,32.65
2023-04-08T00:38:03.455Z,28.52
2023-04-08T00:40:31.193Z,25.35
2023-04-08T00:42:58.774Z,24.75
2023-04-08T00:45:26.571Z,30.27
2023-04-08T00:47:54.200Z,28.52
2023-04-08T00:50:21.777Z,34.33
2023-04-08T00:53:10.040Z,24.58
2023-04-08T00:55:38.084Z,29.37
2023-04-08T00:58:05.728Z,28.52
2023-04-08T01:00:46.054Z,29.35
2023-04-08T01:03:23.833Z,35.85
2023-04-08T01:06:06.579Z,36.25
2023-04-08T01:08:38.449Z,32.03
2023-04-08T01:11:10.910Z,31.40
2023-04-08T01:13:42.147Z,31.20
2023-04-08T01:16:15.892Z,39.22
2023-04-08T01:18:45.084Z,42.67
2023-04-08T01:21:15.417Z,36.38
2023-04-08T01:24:11.596Z,31.13
2023-04-08T01:26:40.699Z,34.92
2023-04-08T01:29:09.180Z,36.88
2023-04-08T01:31:38.248Z,43.25
2023-04-08T01:34:06.739Z,39.42
2023-04-08T01:36:37.364Z,37.67
2023-04-08T01:39:07.579Z,37.88
2023-04-08T01:41:37.406Z,29.77
2023-04-08T01:44:07.264Z,28.15
2023-04-08T01:46:36.214Z,30.20
2023-04-08T01:49:04.709Z,32.20
2023-04-08T01:51:33.983Z,38.72
2023-04-08T01:54:01.519Z,39.20
2023-04-08T01:56:31.382Z,41.33
2023-04-08T01:59:01.588Z,42.05
2023-04-08T02:01:32.331Z,30.80
2023-04-08T02:04:03.827Z,25.05
2023-04-08T02:06:32.275Z,27.23
2023-04-08T02:09:01.543Z,31.63
2023-04-08T02:13:59.058Z,34.80
2023-04-08T02:16:48.469Z,36.35
2023-04-08T02:19:24.939Z,29.95
2023-04-08T02:22:00.483Z,21.45
2023-04-08T02:24:29.879Z,26.17
2023-04-08T02:27:00.008Z,25.65
2023-04-08T02:29:31.618Z,30.05
2023-04-08T02:32:04.156Z,25.60
2023-04-08T02:34:32.732Z,30.27
2023-04-08T02:39:33.313Z,31.25
2023-04-08T02:42:01.295Z,27.45
2023-04-08T02:44:28.758Z,27.33
2023-04-08T02:47:00.268Z,22.33
2023-04-08T02:49:27.879Z,26.60
2023-04-08T02:51:55.913Z,22.52
2023-04-08T02:54:24.952Z,22.48
2023-04-08T02:56:52.709Z,25.77
2023-04-08T02:59:20.341Z,24.88
2023-04-08T03:01:48.110Z,22.55
2023-04-08T03:04:15.708Z,19.65
2023-04-08T03:06:43.381Z,20.65
2023-04-08T03:09:11.719Z,22.58
2023-04-08T03:11:40.693Z,20.73
2023-04-08T03:14:08.205Z,21.30
2023-04-08T03:16:37.065Z,33.45
2023-04-08T03:19:05.202Z,24.17
2023-04-08T03:21:33.179Z,25.60
2023-04-08T03:24:00.894Z,25.58
2023-04-08T03:26:29.260Z,25.70
2023-04-08T03:28:59.467Z,24.42
2023-04-08T03:31:27.703Z,20.60
2023-04-08T03:33:55.417Z,20.80
2023-04-08T03:36:27.663Z,26.02
2023-04-08T03:38:55.311Z,20.00
2023-04-08T03:41:22.816Z,24.33
2023-04-08T03:43:50.426Z,21.48
2023-04-08T03:46:18.030Z,21.55
2023-04-08T03:48:46.844Z,18.40
2023-04-08T03:51:14.644Z,22.65
2023-04-08T03:53:43.222Z,25.02
2023-04-08T03:56:11.354Z,25.25
2023-04-08T03:58:39.500Z,26.25
2023-04-08T04:01:07.152Z,23.42
2023-04-08T04:03:35.525Z,22.35
2023-04-08T04:06:05.728Z,18.77
2023-04-08T04:08:33.324Z,22.60
2023-04-08T04:11:01.420Z,17.85
2023-04-08T04:13:29.116Z,26.42
2023-04-08T04:15:57.718Z,23.58
2023-04-08T04:18:25.810Z,25.00
2023-04-08T04:20:53.355Z,25.92
2023-04-08T04:23:21.359Z,27.92
2023-04-08T04:25:49.118Z,29.02
2023-04-08T04:28:17.513Z,22.88
2023-04-08T04:30:48.390Z,22.67
2023-04-08T04:33:16.161Z,24.15
2023-04-08T04:35:45.126Z,20.35
2023-04-08T04:38:13.423Z,24.95
2023-04-08T04:40:42.151Z,26.67
2023-04-08T04:43:09.868Z,27.27
2023-04-08T04:45:38.249Z,20.70
2023-04-08T04:48:05.914Z,22.08
2023-04-08T04:50:33.614Z,21.23
2023-04-08T04:53:02.025Z,21.85
2023-04-08T04:55:32.190Z,20.75
2023-04-08T04:57:59.744Z,17.73
2023-04-08T05:00:27.257Z,18.45
2023-04-08T05:02:55.889Z,20.08
2023-04-08T05:05:23.456Z,24.70
2023-04-08T05:07:52.315Z,17.37
2023-04-08T05:10:20.034Z,19.50
2023-04-08T05:12:47.787Z,20.95
2023-04-08T05:15:15.864Z,22.15
2023-04-08T05:17:43.762Z,27.83
2023-04-08T05:20:11.393Z,24.05
2023-04-08T05:22:45.461Z,19.48
2023-04-08T05:25:13.229Z,19.60
2023-04-08T05:27:40.831Z,25.13
2023-04-08T05:30:09.938Z,21.67
2023-04-08T05:32:39.922Z,24.50
2023-04-08T05:35:07.984Z,24.50
2023-04-08T05:37:35.585Z,23.38
2023-04-08T05:40:09.505Z,23.08
2023-04-08T05:42:37.749Z,22.20
2023-04-08T05:45:05.986Z,25.33
2023-04-08T05:47:33.941Z,23.83
2023-04-08T05:50:01.643Z,25.08
2023-04-08T05:52:29.372Z,30.58
2023-04-08T05:54:56.934Z,25.83
2023-04-08T05:57:25.496Z,26.10
2023-04-08T05:59:53.572Z,24.08
2023-04-08T06:02:21.819Z,25.23
2023-04-08T06:04:49.376Z,21.48
2023-04-08T06:07:16.872Z,28.00
2023-04-08T06:09:45.337Z,30.33
2023-04-08T06:12:13.374Z,27.27
2023-04-08T06:14:41.169Z,34.35
2023-04-08T06:17:09.952Z,19.42
2023-04-08T06:19:38.105Z,22.90
2023-04-08T06:22:05.817Z,16.63
2023-04-08T06:24:39.553Z,15.70
2023-04-08T06:27:07.372Z,13.70
2023-04-08T06:29:34.899Z,11.57
2023-04-08T06:32:02.487Z,12.35
2023-04-08T06:34:30.675Z,11.25
2023-04-08T06:36:58.812Z,13.15
2023-04-08T06:39:26.605Z,15.80
2023-04-08T06:41:54.882Z,10.35
2023-04-08T06:44:38.721Z,20.25
2023-04-08T06:47:06.906Z,15.13
2023-04-08T06:49:34.500Z,9.70
2023-04-08T06:52:07.030Z,13.18
2023-04-08T06:54:34.894Z,14.90
2023-04-08T06:57:02.382Z,11.55
2023-04-08T06:59:30.501Z,10.60
2023-04-08T07:01:58.085Z,12.05
2023-04-08T07:04:26.157Z,14.23
2023-04-08T07:06:53.649Z,9.18
2023-04-08T07:09:21.711Z,14.13
2023-04-08T07:11:50.853Z,17.23
2023-04-08T07:14:19.667Z,19.05
2023-04-08T07:16:48.907Z,20.40
2023-04-08T07:19:16.561Z,19.58
2023-04-08T07:21:47.081Z,22.95
2023-04-08T07:24:15.003Z,22.33
2023-04-08T07:26:42.838Z,13.38
2023-04-08T07:29:11.303Z,18.00
2023-04-08T07:31:39.221Z,19.85
2023-04-08T07:34:06.773Z,12.57
2023-04-08T07:36:34.410Z,12.88
2023-04-08T07:39:02.719Z,11.88
2023-04-08T07:41:30.264Z,14.68
2023-04-08T07:43:57.928Z,13.63
2023-04-08T07:46:25.727Z,13.90
2023-04-08T07:48:53.650Z,18.55
2023-04-08T07:51:21.690Z,16.08
2023-04-08T07:53:51.925Z,13.52
2023-04-08T07:56:19.486Z,11.23
2023-04-08T07:58:47.075Z,16.13
2023-04-08T08:01:22.103Z,14.13
2023-04-08T08:03:53.012Z,9.52
2023-04-08T08:06:21.918Z,17.30
2023-04-08T08:08:50.544Z,14.38
2023-04-08T08:11:18.408Z,10.32
2023-04-08T08:13:53.669Z,11.05
2023-04-08T08:16:32.509Z,15.48
2023-04-08T08:19:01.463Z,9.35
2023-04-08T08:21:36.878Z,14.50
2023-04-08T08:24:04.863Z,11.95
2023-04-08T08:26:36.784Z,10.38
2023-04-08T08:29:06.672Z,11.70
2023-04-08T08:31:37.655Z,13.32
2023-04-08T08:34:05.397Z,14.70
2023-04-08T08:36:33.549Z,15.57
2023-04-08T08:39:02.771Z,10.23
2023-04-08T08:41:35.330Z,11.38
2023-04-08T08:44:07.062Z,12.73
2023-04-08T08:46:34.961Z,14.10
2023-04-08T08:49:02.882Z,11.93
2023-04-08T08:51:32.988Z,12.73
2023-04-08T08:54:03.551Z,11.70
2023-04-08T08:56:33.338Z,12.20
2023-04-08T08:59:01.097Z,17.17
2023-04-08T09:01:32.741Z,7.40
2023-04-08T09:04:18.443Z,11.80
2023-04-08T09:07:04.756Z,10.70
2023-04-08T09:09:51.675Z,8.30
2023-04-08T09:12:23.331Z,12.48
2023-04-08T09:14:51.521Z,8.73
2023-04-08T09:17:41.568Z,8.45
2023-04-08T09:20:12.246Z,12.23
2023-04-08T09:23:06.247Z,9.55
2023-04-08T09:25:34.215Z,12.00
2023-04-08T09:28:03.259Z,11.90
2023-04-08T09:30:32.547Z,12.98
2023-04-08T09:33:07.437Z,10.43
2023-04-08T09:35:35.175Z,12.55
2023-04-08T09:38:02.919Z,13.68
2023-04-08T09:43:06.258Z,15.57
2023-04-08T09:45:36.709Z,10.52
2023-04-08T09:48:15.107Z,20.17
2023-04-08T09:50:50.731Z,19.37
2023-04-08T09:53:30.813Z,13.18
2023-04-08T09:56:00.838Z,19.95
2023-04-08T09:58:52.311Z,13.80
2023-04-08T10:01:27.078Z,10.70
2023-04-08T10:03:57.431Z,8.95
2023-04-08T10:06:29.756Z,13.18
2023-04-08T10:08:58.308Z,10.63
2023-04-08T10:11:26.362Z,12.65
2023-04-08T10:13:56.974Z,11.50
2023-04-08T10:16:27.695Z,13.25
2023-04-08T10:18:56.854Z,20.27
2023-04-08T10:21:37.103Z,15.20
2023-04-08T10:24:10.157Z,12.13
2023-04-08T10:26:45.723Z,11.57
2023-04-08T10:29:19.456Z,17.48
2023-04-08T10:31:50.732Z,9.45
2023-04-08T10:34:26.407Z,9.27
2023-04-08T10:36:56.937Z,9.05
2023-04-08T10:39:27.367Z,8.77
2023-04-08T10:41:56.416Z,12.18
2023-04-08T10:44:26.801Z,11.10
2023-04-08T10:46:55.781Z,10.07
2023-04-08T10:49:32.250Z,21.63
2023-04-08T10:52:09.224Z,8.05
2023-04-08T10:54:37.635Z,13.40
2023-04-08T10:57:06.042Z,10.20
2023-04-08T10:59:33.762Z,13.13
2023-04-08T11:02:02.535Z,11.55
2023-04-08T11:04:30.772Z,15.27
2023-04-08T11:06:59.154Z,13.95
2023-04-08T11:09:26.693Z,12.95
2023-04-08T11:11:54.268Z,14.77
2023-04-08T11:14:24.130Z,11.35
2023-04-08T11:16:52.247Z,12.13
2023-04-08T11:19:20.114Z,13.82
2023-04-08T11:21:48.756Z,15.73
2023-04-08T11:24:16.927Z,11.45
2023-04-08T11:26:48.421Z,11.50
2023-04-08T11:29:17.233Z,12.35
2023-04-08T11:31:45.343Z,9.52
2023-04-08T11:34:13.029Z,9.02
2023-04-08T11:36:41.858Z,14.15
2023-04-08T11:39:10.638Z,10.70
2023-04-08T11:41:40.513Z,9.73
2023-04-08T11:44:08.999Z,12.10
2023-04-08T11:46:37.913Z,11.10
2023-04-08T11:49:08.344Z,8.68
2023-04-08T11:52:00.672Z,6.57
2023-04-08T11:54:33.182Z,9.13
2023-04-08T11:57:00.973Z,47.53
2023-04-08T11:59:29.871Z,23.70
2023-04-08T12:01:59.049Z,11.97
2023-04-08T12:04:26.789Z,44.27
2023-04-08T12:06:56.963Z,31.75
2023-04-08T12:09:25.918Z,17.25
2023-04-08T12:11:53.358Z,22.88
2023-04-08T12:14:22.122Z,36.13
2023-04-08T12:16:49.646Z,28.55
2023-04-08T12:19:24.154Z,30.75
2023-04-08T12:21:51.804Z,23.58
2023-04-08T12:24:19.459Z,17.17
2023-04-08T12:26:50.122Z,21.23
2023-04-08T12:29:17.669Z,11.90
2023-04-08T12:31:45.287Z,14.52
2023-04-08T12:34:13.361Z,9.45
2023-04-08T12:36:41.942Z,7.22
2023-04-08T12:39:09.608Z,9.93
2023-04-08T12:41:37.122Z,12.02
2023-04-08T12:44:04.743Z,13.52
2023-04-08T12:46:32.804Z,9.13
2023-04-08T12:49:04.218Z,7.65
2023-04-08T12:51:38.850Z,8.98
2023-04-08T12:54:06.491Z,11.52
2023-04-08T12:56:34.629Z,11.95
2023-04-08T12:59:02.371Z,9.93
2023-04-08T13:01:31.092Z,9.40
2023-04-08T13:03:59.409Z,7.60
2023-04-08T13:06:27.770Z,10.35
2023-04-08T13:08:55.504Z,7.03
2023-04-08T13:11:23.565Z,10.02
2023-04-08T13:13:51.402Z,5.22
2023-04-08T13:16:19.422Z,7.60
2023-04-08T13:18:49.066Z,7.82
2023-04-08T13:21:17.020Z,12.93
2023-04-08T13:23:46.936Z,8.20
2023-04-08T13:28:55.909Z,9.52
2023-04-08T13:31:26.592Z,10.85
2023-04-08T13:33:57.648Z,13.38
2023-04-08T13:36:26.903Z,13.40
2023-04-08T13:38:54.877Z,12.90
2023-04-08T13:41:22.634Z,13.27
2023-04-08T13:43:51.101Z,10.65
2023-04-08T13:46:18.764Z,17.27
2023-04-08T13:48:46.655Z,15.35
2023-04-08T13:51:14.963Z,11.25
2023-04-08T13:53:42.499Z,7.22
2023-04-08T13:56:10.016Z,13.63
2023-04-08T13:58:37.898Z,8.50
2023-04-08T14:01:07.244Z,15.63
2023-04-08T14:03:35.808Z,6.85
2023-04-08T14:06:03.491Z,9.98
2023-04-08T14:08:31.093Z,12.43
2023-04-08T14:10:59.348Z,8.75
2023-04-08T14:13:26.870Z,11.77
2023-04-08T14:16:02.437Z,12.98
2023-04-08T14:18:31.319Z,15.38
2023-04-08T14:20:58.806Z,15.70
2023-04-08T14:23:26.295Z,15.27
2023-04-08T14:25:54.043Z,11.38
2023-04-08T14:28:21.585Z,14.68
2023-04-08T14:30:51.129Z,17.48
2023-04-08T14:33:19.850Z,12.90
2023-04-08T14:35:48.207Z,9.88
2023-04-08T14:38:17.927Z,14.88
2023-04-08T14:40:45.643Z,19.02
2023-04-08T14:43:13.707Z,12.32
2023-04-08T14:45:41.259Z,18.27
2023-04-08T14:48:10.729Z,11.15
2023-04-08T14:50:38.606Z,19.25
2023-04-08T14:53:06.219Z,16.17
2023-04-08T14:55:34.120Z,19.45
2023-04-08T14:58:01.657Z,19.90
2023-04-08T15:00:29.623Z,13.77
2023-04-08T15:03:13.276Z,13.95
2023-04-08T15:05:42.924Z,14.85
2023-04-08T15:08:10.957Z,13.77
2023-04-08T15:10:38.472Z,9.40
2023-04-08T15:13:06.184Z,18.75
2023-04-08T15:15:34.128Z,12.55
2023-04-08T15:18:01.864Z,17.33
2023-04-08T15:20:32.795Z,20.67
2023-04-08T15:23:00.703Z,14.85
2023-04-08T15:25:28.479Z,18.63
2023-04-08T15:27:57.906Z,16.33
2023-04-08T15:30:26.474Z,18.58
2023-04-08T15:32:56.961Z,17.00
2023-04-08T15:35:25.581Z,13.55
2023-04-08T15:37:53.141Z,13.38
2023-04-08T15:40:20.687Z,11.45
2023-04-08T15:42:49.478Z,12.20
2023-04-08T15:45:17.645Z,11.85
2023-04-08T15:47:45.283Z,16.10
2023-04-08T15:50:13.151Z,15.75
2023-04-08T15:52:41.554Z,14.65
2023-04-08T15:55:09.110Z,35.97
2023-04-08T15:57:37.240Z,14.35
2023-04-08T16:00:10.836Z,12.25
2023-04-08T16:03:01.340Z,14.68
2023-04-08T16:05:30.341Z,19.30
2023-04-08T16:08:00.053Z,15.90
2023-04-08T16:10:27.562Z,14.40
2023-04-08T16:12:55.855Z,17.90
2023-04-08T16:15:23.593Z,20.25
2023-04-08T16:17:52.674Z,22.08
2023-04-08T16:20:23.670Z,16.10
2023-04-08T16:22:52.210Z,15.25
2023-04-08T16:25:19.983Z,15.32
2023-04-08T16:27:48.182Z,12.32
2023-04-08T16:30:15.830Z,15.40
2023-04-08T16:32:43.978Z,14.27
2023-04-08T16:35:13.209Z,17.98
2023-04-08T16:37:40.928Z,17.70
2023-04-08T16:40:08.990Z,14.40
2023-04-08T16:42:36.848Z,13.13
2023-04-08T16:45:05.252Z,21.65
2023-04-08T16:47:33.691Z,18.25
2023-04-08T16:50:01.483Z,15.52
2023-04-08T16:52:29.610Z,17.92
2023-04-08T16:54:57.758Z,18.95
2023-04-08T16:57:25.533Z,16.65
2023-04-08T16:59:53.287Z,18.52
2023-04-08T17:02:21.890Z,14.45
2023-04-08T17:04:50.443Z,21.95
2023-04-08T17:07:17.921Z,15.85
2023-04-08T17:09:52.084Z,12.90
2023-04-08T17:12:21.281Z,12.30
2023-04-08T17:14:49.364Z,19.33
2023-04-08T17:17:17.905Z,20.10
2023-04-08T17:19:45.762Z,23.00
2023-04-08T17:24:47.847Z,21.20
2023-04-08T17:27:15.707Z,16.27
2023-04-08T17:29:45.544Z,17.25
2023-04-08T17:32:13.724Z,15.95
2023-04-08T17:34:41.550Z,12.57
2023-04-08T17:37:10.435Z,9.18
2023-04-08T17:39:40.985Z,12.37
2023-04-08T17:44:37.036Z,11.43
2023-04-08T17:47:04.950Z,8.25
2023-04-08T17:49:39.064Z,17.00
2023-04-08T17:52:07.113Z,9.50
2023-04-08T17:54:35.385Z,11.13
2023-04-08T17:57:03.279Z,11.55
2023-04-08T17:59:30.971Z,11.55
2023-04-08T18:02:04.071Z,12.65
2023-04-08T18:04:32.546Z,13.25
2023-04-08T18:07:01.095Z,14.40
2023-04-08T18:09:36.772Z,11.60
2023-04-08T18:12:04.463Z,14.38
2023-04-08T18:14:32.030Z,11.98
2023-04-08T18:17:01.050Z,11.00
2023-04-08T18:19:28.834Z,8.30
2023-04-08T18:21:57.217Z,17.42
2023-04-08T18:24:24.765Z,13.57
2023-04-08T18:27:01.487Z,14.98
2023-04-08T18:29:33.390Z,12.00
2023-04-08T18:32:01.215Z,11.10
2023-04-08T18:34:28.665Z,10.75
2023-04-08T18:37:00.874Z,10.57
2023-04-08T18:39:28.699Z,11.90
2023-04-08T18:41:56.739Z,12.32
2023-04-08T18:44:24.306Z,12.85
2023-04-08T18:46:54.344Z,10.60
2023-04-08T18:49:22.465Z,10.48
2023-04-08T18:52:01.243Z,9.15
2023-04-08T18:54:29.906Z,10.35
2023-04-08T18:57:02.874Z,12.15
2023-04-08T18:59:30.851Z,9.32
2023-04-08T19:01:58.468Z,10.05
2023-04-08T19:04:26.501Z,8.40
2023-04-08T19:06:53.958Z,10.35
2023-04-08T19:09:21.615Z,9.48
2023-04-08T19:11:52.618Z,8.07
2023-04-08T19:14:20.213Z,7.93
2023-04-08T19:16:48.022Z,6.97
2023-04-08T19:19:17.000Z,7.53
2023-04-08T19:21:44.587Z,8.48
2023-04-08T19:24:12.134Z,7.47
2023-04-08T19:26:40.028Z,6.95
2023-04-08T19:29:09.437Z,9.18
2023-04-08T19:31:37.907Z,10.35
2023-04-08T19:34:05.667Z,9.20
2023-04-08T19:36:33.470Z,9.02
2023-04-08T19:39:04.674Z,8.70
2023-04-08T19:41:32.194Z,8.48
2023-04-08T19:43:59.740Z,6.65
2023-04-08T19:46:28.942Z,9.38
2023-04-08T19:48:59.157Z,8.93
2023-04-08T19:51:29.164Z,8.35
2023-04-08T19:53:57.385Z,8.18
2023-04-08T19:56:26.473Z,10.95
2023-04-08T19:58:54.265Z,7.45
2023-04-08T20:01:24.098Z,17.73
2023-04-08T20:06:21.084Z,7.78
2023-04-08T20:08:52.511Z,9.77
2023-04-08T20:11:20.941Z,10.57
2023-04-08T20:13:49.989Z,8.40
2023-04-08T20:16:17.922Z,8.95
2023-04-08T20:18:47.209Z,8.70
2023-04-08T20:21:14.810Z,7.18
2023-04-08T20:23:44.935Z,9.18
2023-04-08T20:26:13.452Z,8.60
2023-04-08T20:28:44.977Z,8.50
2023-04-08T20:31:13.253Z,10.10
2023-04-08T20:33:44.260Z,14.68
2023-04-08T20:36:12.502Z,14.00
2023-04-08T20:38:40.805Z,9.80
2023-04-08T20:43:37.980Z,11.57
2023-04-08T20:46:05.918Z,10.27
2023-04-08T20:48:34.566Z,11.55
2023-04-08T20:51:02.820Z,14.13
2023-04-08T20:56:00.198Z,14.35
2023-04-08T20:58:33.218Z,14.75
2023-04-08T21:01:01.475Z,15.57
2023-04-08T21:03:29.682Z,14.10
2023-04-08T21:06:01.352Z,19.58
2023-04-08T21:08:28.899Z,17.52
2023-04-08T21:10:57.080Z,19.10
2023-04-08T21:13:32.799Z,17.98
2023-04-08T21:16:01.739Z,21.13
2023-04-08T21:18:29.712Z,22.10
2023-04-08T21:21:03.523Z,19.85
2023-04-08T21:23:31.859Z,17.95
2023-04-08T21:26:00.407Z,19.40
2023-04-08T21:28:32.708Z,17.92
2023-04-08T21:31:13.367Z,22.08
2023-04-08T21:33:41.218Z,19.08
2023-04-08T21:36:08.746Z,20.98
2023-04-08T21:38:36.342Z,19.15
2023-04-08T21:41:04.011Z,18.80
2023-04-08T21:43:31.680Z,21.85
2023-04-08T21:45:59.466Z,22.27
2023-04-08T21:48:28.744Z,26.33
2023-04-08T21:50:56.490Z,27.67
2023-04-08T21:53:24.388Z,32.13
2023-04-08T21:55:52.939Z,31.05
2023-04-08T21:58:21.612Z,26.55
2023-04-08T22:00:53.118Z,30.90
2023-04-08T22:03:22.456Z,29.33
2023-04-08T22:05:50.024Z,25.35
2023-04-08T22:08:17.733Z,31.63
2023-04-08T22:10:45.522Z,25.98
2023-04-08T22:13:14.343Z,29.48
2023-04-08T22:15:43.137Z,28.13
2023-04-08T22:18:10.729Z,27.20
2023-04-08T22:20:38.643Z,29.33
2023-04-08T22:23:06.142Z,27.25
2023-04-08T22:25:34.520Z,26.67
2023-04-08T22:28:02.154Z,25.27
2023-04-08T22:30:30.245Z,25.88
2023-04-08T22:33:02.842Z,26.67
2023-04-08T22:35:30.661Z,27.67
2023-04-08T22:38:01.239Z,26.50
2023-04-08T22:40:29.002Z,23.70
2023-04-08T22:42:56.655Z,25.30
2023-04-08T22:45:25.044Z,28.33
2023-04-08T22:47:54.357Z,29.75
2023-04-08T22:50:42.263Z,26.45
2023-04-08T22:53:10.072Z,46.45
2023-04-08T22:55:37.696Z,30.23
2023-04-08T22:58:10.006Z,31.52
2023-04-08T23:00:38.306Z,23.67
2023-04-08T23:03:06.835Z,28.45
2023-04-08T23:05:34.486Z,32.03
2023-04-08T23:08:02.966Z,24.90
2023-04-08T23:10:31.064Z,24.10
2023-04-08T23:12:58.695Z,23.85
2023-04-08T23:15:27.070Z,21.90
2023-04-08T23:17:54.657Z,19.90
2023-04-08T23:20:22.244Z,28.10
2023-04-08T23:22:49.821Z,27.50
2023-04-08T23:25:17.511Z,18.55
2023-04-08T23:27:48.150Z,20.48
2023-04-08T23:30:16.639Z,21.77
2023-04-08T23:32:46.826Z,17.58
2023-04-08T23:35:16.602Z,18.13
2023-04-08T23:37:46.454Z,18.52
2023-04-08T23:40:14.414Z,17.65
2023-04-08T23:42:47.480Z,17.90
2023-04-08T23:45:15.988Z,15.50
2023-04-08T23:47:43.509Z,16.60
2023-04-08T23:50:14.639Z,17.10
2023-04-08T23:52:43.650Z,15.65
2023-04-08T23:55:19.364Z,12.10
2023-04-08T23:57:49.285Z,16.10
